createdAt,value
2018-11-01T00:00:04.183Z,961.43
2018-11-01T00:01:04.176Z,961.40
2018-11-01T00:02:04.164Z,961.41
2018-11-01T00:03:04.160Z,961.42
2018-11-01T00:04:04.157Z,961.44
2018-11-01T00:05:04.148Z,961.41
2018-11-01T00:06:04.143Z,961.37
2018-11-01T00:07:04.139Z,961.36
2018-11-01T00:08:04.134Z,961.44
2018-11-01T00:09:04.124Z,961.47
2018-11-01T00:10:04.116Z,961.42
2018-11-01T00:11:04.108Z,961.43
2018-11-01T00:12:04.104Z,961.43
2018-11-01T00:13:04.096Z,961.46
2018-11-01T00:14:04.091Z,961.46
2018-11-01T00:15:04.082Z,961.44
2018-11-01T00:16:04.083Z,961.42
2018-11-01T00:17:04.068Z,961.41
2018-11-01T00:18:04.065Z,961.37
2018-11-01T00:19:04.066Z,961.35
2018-11-01T00:20:04.050Z,961.36
2018-11-01T00:21:04.042Z,961.36
2018-11-01T00:22:04.036Z,961.38
2018-11-01T00:23:04.034Z,961.47
2018-11-01T00:24:04.024Z,961.41
2018-11-01T00:25:04.017Z,961.43
2018-11-01T00:26:04.011Z,961.46
2018-11-01T00:27:04.008Z,961.43
2018-11-01T00:28:03.998Z,961.46
2018-11-01T00:29:03.990Z,961.43
2018-11-01T00:30:03.986Z,961.45
2018-11-01T00:31:03.979Z,961.45
2018-11-01T00:32:03.981Z,961.40
2018-11-01T00:33:03.963Z,961.45
2018-11-01T00:34:03.972Z,961.43
2018-11-01T00:35:03.952Z,961.42
2018-11-01T00:36:03.955Z,961.43
2018-11-01T00:37:03.940Z,961.40
2018-11-01T00:38:03.936Z,961.46
2018-11-01T00:39:03.924Z,961.44
2018-11-01T00:40:03.923Z,961.43
2018-11-01T00:41:03.911Z,961.45
2018-11-01T00:42:03.906Z,961.44
2018-11-01T00:43:03.897Z,961.41
2018-11-01T00:44:03.891Z,961.44
2018-11-01T00:45:03.884Z,961.43
2018-11-01T00:46:03.880Z,961.40
2018-11-01T00:47:03.873Z,961.40
2018-11-01T00:48:03.865Z,961.41
2018-11-01T00:49:03.859Z,961.42
2018-11-01T00:50:03.856Z,961.40
2018-11-01T00:51:03.846Z,961.39
2018-11-01T00:52:03.838Z,961.41
2018-11-01T00:53:03.832Z,961.39
2018-11-01T00:54:03.824Z,961.38
2018-11-01T00:55:03.817Z,961.34
2018-11-01T00:56:03.812Z,961.32
2018-11-01T00:57:03.805Z,961.36
2018-11-01T00:58:03.796Z,961.33
2018-11-01T00:59:03.792Z,961.34
2018-11-01T01:00:03.786Z,961.26
2018-11-01T01:01:03.777Z,961.27
2018-11-01T01:02:03.774Z,961.22
2018-11-01T01:03:03.765Z,961.24
2018-11-01T01:04:03.759Z,961.22
2018-11-01T01:05:03.754Z,961.26
2018-11-01T01:06:03.744Z,961.24
2018-11-01T01:07:03.738Z,961.23
2018-11-01T01:08:03.744Z,961.26
2018-11-01T01:09:03.725Z,961.27
2018-11-01T01:10:03.717Z,961.24
2018-11-01T01:11:03.735Z,961.28
2018-11-01T01:12:03.705Z,961.25
2018-11-01T01:13:03.698Z,961.26
2018-11-01T01:14:03.690Z,961.25
2018-11-01T01:15:03.687Z,961.27
2018-11-01T01:16:03.677Z,961.25
2018-11-01T01:17:03.672Z,961.22
2018-11-01T01:18:03.665Z,961.22
2018-11-01T01:19:03.742Z,961.27
2018-11-01T01:20:03.652Z,961.20
2018-11-01T01:21:03.642Z,961.24
2018-11-01T01:22:03.635Z,961.29
2018-11-01T01:23:03.631Z,961.24
2018-11-01T01:24:03.623Z,961.25
2018-11-01T01:25:03.615Z,961.19
2018-11-01T01:26:03.609Z,961.24
2018-11-01T01:27:03.618Z,961.19
2018-11-01T01:28:03.598Z,961.20
2018-11-01T01:29:03.591Z,961.17
2018-11-01T01:30:03.582Z,961.18
2018-11-01T01:31:03.598Z,961.20
2018-11-01T01:32:03.568Z,961.16
2018-11-01T01:33:03.603Z,961.20
2018-11-01T01:34:03.556Z,961.18
2018-11-01T01:35:03.548Z,961.14
2018-11-01T01:36:03.548Z,961.17
2018-11-01T01:37:03.539Z,961.15
2018-11-01T01:38:03.528Z,961.16
2018-11-01T01:39:03.519Z,961.16
2018-11-01T01:40:03.517Z,961.15
2018-11-01T01:41:03.506Z,961.13
2018-11-01T01:42:03.503Z,961.13
2018-11-01T01:43:03.493Z,961.15
2018-11-01T01:44:03.491Z,961.14
2018-11-01T01:45:03.479Z,961.13
2018-11-01T01:46:03.473Z,961.08
2018-11-01T01:47:03.466Z,961.03
2018-11-01T01:48:03.463Z,961.04
2018-11-01T01:49:03.454Z,961.04
2018-11-01T01:50:03.447Z,960.98
2018-11-01T01:51:03.441Z,960.97
2018-11-01T01:52:03.432Z,960.96
2018-11-01T01:53:03.428Z,960.91
2018-11-01T01:54:03.420Z,960.92
2018-11-01T01:55:03.423Z,960.91
2018-11-01T01:56:03.404Z,960.91
2018-11-01T01:57:03.400Z,960.87
2018-11-01T01:58:03.391Z,960.90
2018-11-01T01:59:03.384Z,960.96
2018-11-01T02:00:03.376Z,960.92
2018-11-01T02:01:03.373Z,960.93
2018-11-01T02:02:03.392Z,960.89
2018-11-01T02:03:03.355Z,960.88
2018-11-01T02:04:03.379Z,960.92
2018-11-01T02:05:03.348Z,960.87
2018-11-01T02:06:03.335Z,960.84
2018-11-01T02:07:03.344Z,960.84
2018-11-01T02:08:03.336Z,960.81
2018-11-01T02:09:03.313Z,960.78
2018-11-01T02:10:03.309Z,960.74
2018-11-01T02:11:03.331Z,960.71
2018-11-01T02:12:03.293Z,960.69
2018-11-01T02:13:03.285Z,960.67
2018-11-01T02:14:03.279Z,960.63
2018-11-01T02:15:03.275Z,960.62
2018-11-01T02:16:03.285Z,960.65
2018-11-01T02:17:03.262Z,960.63
2018-11-01T02:18:03.264Z,960.59
2018-11-01T02:19:03.259Z,960.59
2018-11-01T02:20:03.274Z,960.58
2018-11-01T02:21:03.232Z,960.51
2018-11-01T02:22:03.226Z,960.50
2018-11-01T02:23:03.217Z,960.48
2018-11-01T02:24:03.217Z,960.45
2018-11-01T02:25:03.217Z,960.47
2018-11-01T02:26:03.201Z,960.43
2018-11-01T02:27:03.189Z,960.43
2018-11-01T02:28:03.205Z,960.38
2018-11-01T02:29:03.188Z,960.39
2018-11-01T02:30:03.171Z,960.35
2018-11-01T02:31:03.164Z,960.31
2018-11-01T02:32:03.172Z,960.32
2018-11-01T02:33:03.159Z,960.30
2018-11-01T02:34:03.189Z,960.27
2018-11-01T02:35:03.140Z,960.28
2018-11-01T02:36:03.134Z,960.21
2018-11-01T02:37:03.123Z,960.21
2018-11-01T02:38:03.247Z,960.23
2018-11-01T02:39:03.105Z,960.22
2018-11-01T02:40:03.098Z,960.19
2018-11-01T02:41:03.091Z,960.21
2018-11-01T02:42:03.085Z,960.20
2018-11-01T02:43:03.080Z,960.22
2018-11-01T02:44:03.072Z,960.26
2018-11-01T02:45:03.064Z,960.26
2018-11-01T02:46:03.057Z,960.31
2018-11-01T02:47:03.049Z,960.33
2018-11-01T02:48:03.045Z,960.40
2018-11-01T02:49:03.034Z,960.40
2018-11-01T02:50:03.031Z,960.37
2018-11-01T02:51:03.022Z,960.39
2018-11-01T02:52:03.014Z,960.35
2018-11-01T02:53:03.005Z,960.39
2018-11-01T02:54:02.999Z,960.35
2018-11-01T02:55:02.991Z,960.35
2018-11-01T02:56:02.984Z,960.27
2018-11-01T02:57:02.976Z,960.23
2018-11-01T02:58:02.976Z,960.20
2018-11-01T02:59:02.964Z,960.13
2018-11-01T03:00:02.964Z,960.17
2018-11-01T03:01:02.948Z,960.16
2018-11-01T03:02:02.944Z,960.13
2018-11-01T03:03:02.936Z,960.13
2018-11-01T03:04:02.928Z,960.12
2018-11-01T03:05:02.919Z,960.21
2018-11-01T03:06:02.918Z,960.13
2018-11-01T03:07:02.906Z,960.14
2018-11-01T03:08:02.900Z,960.19
2018-11-01T03:09:02.891Z,960.11
2018-11-01T03:10:02.888Z,960.12
2018-11-01T03:11:02.880Z,960.10
2018-11-01T03:12:02.870Z,960.03
2018-11-01T03:13:02.864Z,960.01
2018-11-01T03:14:02.855Z,960.03
2018-11-01T03:15:02.848Z,960.01
2018-11-01T03:16:02.847Z,960.07
2018-11-01T03:17:02.898Z,960.12
2018-11-01T03:18:02.826Z,960.12
2018-11-01T03:19:02.818Z,960.17
2018-11-01T03:20:02.817Z,960.14
2018-11-01T03:21:02.804Z,960.14
2018-11-01T03:22:02.796Z,960.11
2018-11-01T03:23:02.788Z,960.11
2018-11-01T03:24:02.787Z,960.08
2018-11-01T03:25:02.776Z,960.07
2018-11-01T03:26:02.766Z,960.12
2018-11-01T03:27:02.764Z,960.10
2018-11-01T03:28:02.753Z,960.13
2018-11-01T03:29:02.748Z,960.21
2018-11-01T03:30:02.745Z,960.24
2018-11-01T03:31:02.732Z,960.27
2018-11-01T03:32:02.726Z,960.32
2018-11-01T03:33:02.731Z,960.24
2018-11-01T03:34:02.724Z,960.24
2018-11-01T03:35:02.709Z,960.25
2018-11-01T03:36:02.696Z,960.21
2018-11-01T03:37:02.690Z,960.32
2018-11-01T03:38:02.750Z,960.30
2018-11-01T03:39:02.752Z,960.30
2018-11-01T03:40:02.669Z,960.28
2018-11-01T03:41:02.658Z,960.25
2018-11-01T03:42:02.650Z,960.21
2018-11-01T03:43:02.643Z,960.21
2018-11-01T03:44:02.637Z,960.21
2018-11-01T03:45:02.636Z,960.17
2018-11-01T03:46:02.629Z,960.18
2018-11-01T03:47:02.618Z,960.22
2018-11-01T03:48:02.615Z,960.22
2018-11-01T03:49:02.605Z,960.20
2018-11-01T03:50:02.593Z,960.23
2018-11-01T03:51:02.584Z,960.22
2018-11-01T03:52:02.694Z,960.15
2018-11-01T03:53:02.574Z,960.16
2018-11-01T03:54:02.565Z,960.11
2018-11-01T03:55:02.558Z,960.14
2018-11-01T03:56:02.555Z,960.14
2018-11-01T03:57:02.539Z,960.08
2018-11-01T03:58:02.537Z,960.08
2018-11-01T03:59:02.619Z,960.07
2018-11-01T04:00:02.525Z,960.07
2018-11-01T04:01:02.512Z,960.08
2018-11-01T04:02:02.513Z,960.07
2018-11-01T04:03:02.497Z,960.10
2018-11-01T04:04:02.534Z,960.07
2018-11-01T04:05:02.484Z,960.02
2018-11-01T04:06:02.479Z,959.95
2018-11-01T04:07:02.468Z,959.97
2018-11-01T04:08:02.462Z,959.96
2018-11-01T04:09:02.454Z,959.93
2018-11-01T04:10:02.451Z,959.93
2018-11-01T04:11:02.443Z,959.93
2018-11-01T04:12:02.443Z,959.86
2018-11-01T04:13:02.425Z,959.90
2018-11-01T04:14:02.420Z,959.86
2018-11-01T04:15:02.483Z,959.84
2018-11-01T04:16:02.425Z,959.85
2018-11-01T04:17:02.427Z,959.87
2018-11-01T04:18:02.389Z,959.88
2018-11-01T04:19:02.385Z,959.85
2018-11-01T04:20:02.375Z,959.79
2018-11-01T04:21:02.371Z,959.83
2018-11-01T04:22:02.364Z,959.83
2018-11-01T04:23:02.385Z,959.82
2018-11-01T04:24:02.348Z,959.82
2018-11-01T04:25:02.337Z,959.74
2018-11-01T04:26:02.318Z,959.72
2018-11-01T04:27:02.322Z,959.71
2018-11-01T04:28:02.320Z,959.69
2018-11-01T04:29:02.349Z,959.68
2018-11-01T04:30:02.305Z,959.66
2018-11-01T04:31:02.292Z,959.61
2018-11-01T04:32:02.286Z,959.58
2018-11-01T04:33:02.369Z,959.54
2018-11-01T04:34:02.268Z,959.54
2018-11-01T04:35:02.264Z,959.54
2018-11-01T04:36:02.267Z,959.48
2018-11-01T04:37:02.239Z,959.50
2018-11-01T04:38:02.231Z,959.47
2018-11-01T04:39:02.223Z,959.43
2018-11-01T04:40:02.216Z,959.45
2018-11-01T04:41:02.209Z,959.41
2018-11-01T04:42:02.198Z,959.41
2018-11-01T04:43:02.205Z,959.45
2018-11-01T04:44:02.207Z,959.39
2018-11-01T04:45:02.178Z,959.38
2018-11-01T04:46:02.170Z,959.32
2018-11-01T04:47:02.216Z,959.26
2018-11-01T04:48:02.172Z,959.17
2018-11-01T04:49:02.149Z,959.18
2018-11-01T04:50:02.142Z,959.13
2018-11-01T04:51:02.134Z,959.12
2018-11-01T04:52:02.127Z,959.11
2018-11-01T04:53:02.117Z,959.08
2018-11-01T04:54:02.112Z,959.12
2018-11-01T04:55:02.104Z,959.05
2018-11-01T04:56:02.095Z,959.10
2018-11-01T04:57:02.096Z,959.14
2018-11-01T04:58:02.084Z,959.15
2018-11-01T04:59:02.077Z,959.12
2018-11-01T05:00:02.067Z,959.13
2018-11-01T05:01:02.064Z,959.06
2018-11-01T05:02:02.053Z,959.05
2018-11-01T05:03:02.045Z,959.01
2018-11-01T05:04:02.037Z,959.01
2018-11-01T05:05:02.062Z,959.01
2018-11-01T05:06:02.023Z,959.07
2018-11-01T05:07:02.013Z,959.08
2018-11-01T05:08:02.126Z,959.15
2018-11-01T05:09:02.005Z,959.10
2018-11-01T05:10:02.006Z,959.13
2018-11-01T05:11:01.987Z,959.14
2018-11-01T05:12:01.978Z,959.11
2018-11-01T05:13:01.988Z,959.07
2018-11-01T05:14:01.963Z,959.06
2018-11-01T05:15:02.003Z,959.03
2018-11-01T05:16:27.013Z,958.94
2018-11-01T05:17:26.910Z,958.97
2018-11-01T05:19:20.297Z,958.99
2018-11-01T05:20:20.335Z,959.01
2018-11-01T05:22:13.325Z,959.03
2018-11-01T05:23:13.145Z,959.01
2018-11-01T05:25:06.016Z,958.99
2018-11-01T05:26:05.981Z,958.96
2018-11-01T05:27:59.065Z,958.88
2018-11-01T05:28:58.836Z,958.85
2018-11-01T05:30:52.327Z,958.81
2018-11-01T05:31:52.173Z,958.82
2018-11-01T05:33:45.608Z,958.80
2018-11-01T05:34:45.552Z,958.84
2018-11-01T05:36:38.418Z,958.81
2018-11-01T05:37:38.395Z,958.83
2018-11-01T05:39:31.773Z,958.89
2018-11-01T05:40:31.738Z,958.89
2018-11-01T05:42:24.598Z,958.93
2018-11-01T05:43:24.603Z,958.99
2018-11-01T05:45:17.943Z,958.95
2018-11-01T05:46:17.928Z,958.90
2018-11-01T05:48:10.830Z,958.93
2018-11-01T05:49:10.765Z,958.86
2018-11-01T05:51:04.133Z,958.89
2018-11-01T05:52:04.129Z,958.91
2018-11-01T05:53:57.485Z,958.85
2018-11-01T05:54:57.498Z,958.89
2018-11-01T05:56:50.841Z,958.84
2018-11-01T05:57:50.816Z,958.85
2018-11-01T05:59:44.256Z,958.90
2018-11-01T06:00:44.160Z,958.91
2018-11-01T06:02:37.028Z,958.93
2018-11-01T06:03:37.015Z,958.94
2018-11-01T06:04:37.006Z,959.00
2018-11-01T06:05:37.043Z,959.01
2018-11-01T06:06:36.992Z,959.00
2018-11-01T06:07:36.987Z,958.99
2018-11-01T06:08:36.982Z,959.02
2018-11-01T06:09:36.978Z,959.01
2018-11-01T06:10:36.963Z,959.03
2018-11-01T06:11:36.961Z,958.99
2018-11-01T06:12:36.948Z,959.01
2018-11-01T06:13:36.939Z,959.03
2018-11-01T06:14:36.931Z,959.03
2018-11-01T06:15:36.937Z,959.06
2018-11-01T06:16:37.125Z,959.08
2018-11-01T06:17:36.911Z,959.09
2018-11-01T06:18:36.991Z,959.09
2018-11-01T06:19:36.896Z,959.14
2018-11-01T06:20:36.933Z,959.14
2018-11-01T06:21:36.894Z,959.12
2018-11-01T06:22:36.881Z,959.10
2018-11-01T06:23:36.875Z,959.04
2018-11-01T06:24:36.859Z,959.02
2018-11-01T06:25:36.853Z,959.06
2018-11-01T06:26:36.849Z,959.03
2018-11-01T06:27:36.839Z,958.99
2018-11-01T06:28:36.846Z,958.92
2018-11-01T06:29:36.825Z,958.86
2018-11-01T06:30:36.817Z,958.83
2018-11-01T06:31:36.817Z,958.77
2018-11-01T06:32:36.809Z,958.76
2018-11-01T06:33:36.809Z,958.69
2018-11-01T06:34:36.795Z,958.76
2018-11-01T06:35:36.785Z,958.76
2018-11-01T06:36:36.786Z,958.76
2018-11-01T06:37:36.773Z,958.78
2018-11-01T06:38:36.812Z,958.76
2018-11-01T06:39:36.777Z,958.78
2018-11-01T06:40:36.753Z,958.77
2018-11-01T06:41:36.754Z,958.75
2018-11-01T06:42:36.745Z,958.70
2018-11-01T06:43:36.731Z,958.70
2018-11-01T06:44:36.742Z,958.62
2018-11-01T06:45:36.745Z,958.60
2018-11-01T06:46:36.715Z,958.48
2018-11-01T06:47:36.765Z,958.50
2018-11-01T06:48:36.683Z,958.50
2018-11-01T06:49:36.687Z,958.50
2018-11-01T06:50:36.673Z,958.50
2018-11-01T06:51:36.666Z,958.48
2018-11-01T06:52:36.716Z,958.50
2018-11-01T06:53:36.652Z,958.55
2018-11-01T06:54:36.652Z,958.47
2018-11-01T06:55:36.637Z,958.48
2018-11-01T06:56:36.629Z,958.43
2018-11-01T06:57:36.624Z,958.45
2018-11-01T06:58:36.752Z,958.47
2018-11-01T06:59:36.791Z,958.39
2018-11-01T07:00:36.603Z,958.43
2018-11-01T07:01:36.595Z,958.46
2018-11-01T07:02:36.592Z,958.50
2018-11-01T07:03:36.592Z,958.51
2018-11-01T07:04:36.574Z,958.56
2018-11-01T07:05:36.620Z,958.55
2018-11-01T07:06:36.557Z,958.58
2018-11-01T07:07:36.554Z,958.58
2018-11-01T07:08:36.544Z,958.55
2018-11-01T07:09:36.539Z,958.58
2018-11-01T07:10:36.536Z,958.57
2018-11-01T07:11:36.614Z,958.53
2018-11-01T07:12:36.521Z,958.53
2018-11-01T07:13:36.516Z,958.48
2018-11-01T07:14:36.510Z,958.55
2018-11-01T07:15:36.503Z,958.47
2018-11-01T07:16:36.492Z,958.44
2018-11-01T07:17:36.627Z,958.48
2018-11-01T07:18:36.480Z,958.46
2018-11-01T07:19:36.476Z,958.44
2018-11-01T07:20:36.466Z,958.47
2018-11-01T07:21:36.462Z,958.40
2018-11-01T07:22:36.454Z,958.40
2018-11-01T07:23:36.446Z,958.46
2018-11-01T07:24:36.445Z,958.42
2018-11-01T07:25:36.551Z,958.38
2018-11-01T07:26:36.568Z,958.41
2018-11-01T07:27:36.426Z,958.33
2018-11-01T07:28:36.416Z,958.30
2018-11-01T07:29:36.411Z,958.28
2018-11-01T07:30:36.424Z,958.23
2018-11-01T07:31:36.400Z,958.20
2018-11-01T07:32:36.405Z,958.25
2018-11-01T07:33:36.385Z,958.25
2018-11-01T07:34:36.381Z,958.22
2018-11-01T07:35:36.373Z,958.24
2018-11-01T07:36:36.368Z,958.22
2018-11-01T07:37:36.395Z,958.17
2018-11-01T07:38:36.358Z,958.13
2018-11-01T07:39:36.394Z,958.18
2018-11-01T07:40:36.344Z,958.13
2018-11-01T07:41:36.339Z,958.10
2018-11-01T07:42:36.333Z,958.16
2018-11-01T07:43:36.322Z,958.09
2018-11-01T07:44:36.321Z,958.03
2018-11-01T07:45:36.312Z,958.04
2018-11-01T07:46:36.309Z,958.01
2018-11-01T07:47:36.304Z,958.02
2018-11-01T07:48:36.314Z,958.08
2018-11-01T07:49:36.291Z,958.04
2018-11-01T07:50:36.285Z,958.02
2018-11-01T07:51:36.296Z,958.08
2018-11-01T07:52:36.280Z,958.09
2018-11-01T07:53:36.271Z,958.04
2018-11-01T07:54:36.263Z,958.02
2018-11-01T07:55:36.258Z,958.07
2018-11-01T07:56:36.252Z,958.00
2018-11-01T07:57:36.248Z,957.94
2018-11-01T07:58:36.261Z,957.93
2018-11-01T07:59:36.237Z,957.99
2018-11-01T08:00:36.234Z,957.92
2018-11-01T08:01:36.232Z,957.98
2018-11-01T08:02:36.222Z,957.99
2018-11-01T08:03:36.218Z,958.01
2018-11-01T08:04:36.214Z,958.02
2018-11-01T08:05:36.261Z,958.00
2018-11-01T08:06:36.204Z,958.00
2018-11-01T08:07:36.202Z,957.93
2018-11-01T08:08:36.197Z,957.92
2018-11-01T08:09:36.198Z,957.98
2018-11-01T08:10:36.192Z,957.99
2018-11-01T08:11:36.240Z,958.02
2018-11-01T08:12:36.187Z,958.03
2018-11-01T08:13:36.188Z,958.07
2018-11-01T08:14:36.173Z,958.13
2018-11-01T08:15:36.171Z,958.14
2018-11-01T08:16:36.179Z,958.17
2018-11-01T08:17:36.169Z,958.15
2018-11-01T08:18:36.164Z,958.17
2018-11-01T08:19:36.215Z,958.13
2018-11-01T08:20:36.227Z,958.09
2018-11-01T08:21:36.152Z,958.06
2018-11-01T08:22:36.153Z,958.07
2018-11-01T08:23:36.162Z,958.09
2018-11-01T08:24:36.146Z,958.05
2018-11-01T08:25:36.141Z,958.06
2018-11-01T08:26:36.143Z,958.06
2018-11-01T08:27:36.139Z,958.08
2018-11-01T08:28:36.137Z,958.06
2018-11-01T08:29:36.132Z,958.11
2018-11-01T08:30:36.145Z,958.11
2018-11-01T08:31:36.146Z,958.10
2018-11-01T08:32:36.128Z,958.13
2018-11-01T08:33:36.127Z,958.09
2018-11-01T08:34:36.123Z,958.09
2018-11-01T08:35:36.118Z,958.10
2018-11-01T08:36:36.119Z,958.05
2018-11-01T08:37:36.128Z,958.12
2018-11-01T08:38:36.137Z,958.01
2018-11-01T08:39:36.110Z,958.12
2018-11-01T08:40:36.106Z,958.10
2018-11-01T08:41:36.109Z,958.01
2018-11-01T08:42:36.109Z,958.12
2018-11-01T08:43:36.103Z,958.03
2018-11-01T08:44:36.100Z,958.01
2018-11-01T08:45:36.097Z,958.13
2018-11-01T08:46:36.093Z,958.05
2018-11-01T08:47:36.092Z,957.93
2018-11-01T08:48:36.091Z,957.97
2018-11-01T08:49:36.275Z,958.08
2018-11-01T08:50:36.084Z,958.02
2018-11-01T08:51:36.083Z,957.94
2018-11-01T08:52:36.079Z,957.92
2018-11-01T08:53:36.077Z,957.94
2018-11-01T08:54:36.078Z,957.92
2018-11-01T08:55:36.076Z,957.95
2018-11-01T08:56:36.074Z,957.94
2018-11-01T08:57:36.071Z,957.97
2018-11-01T08:58:36.068Z,957.93
2018-11-01T08:59:36.062Z,958.00
2018-11-01T09:00:36.063Z,957.97
2018-11-01T09:01:36.110Z,957.93
2018-11-01T09:02:36.063Z,957.95
2018-11-01T09:03:36.054Z,957.92
2018-11-01T09:04:36.051Z,957.91
2018-11-01T09:05:36.050Z,957.86
2018-11-01T09:06:36.064Z,957.82
2018-11-01T09:07:36.102Z,957.77
2018-11-01T09:08:36.043Z,957.74
2018-11-01T09:09:36.042Z,957.74
2018-11-01T09:10:36.094Z,957.77
2018-11-01T09:11:36.034Z,957.69
2018-11-01T09:12:36.081Z,957.66
2018-11-01T09:13:36.027Z,957.61
2018-11-01T09:14:36.079Z,957.56
2018-11-01T09:15:36.027Z,957.53
2018-11-01T09:16:36.021Z,957.52
2018-11-01T09:17:36.021Z,957.51
2018-11-01T09:18:36.021Z,957.58
2018-11-01T09:19:36.018Z,957.56
2018-11-01T09:20:36.011Z,957.58
2018-11-01T09:21:36.010Z,957.56
2018-11-01T09:22:36.015Z,957.61
2018-11-01T09:23:36.004Z,957.67
2018-11-01T09:24:36.009Z,957.71
2018-11-01T09:25:36.007Z,957.74
2018-11-01T09:26:35.997Z,957.76
2018-11-01T09:27:35.996Z,957.83
2018-11-01T09:28:35.993Z,957.82
2018-11-01T09:29:35.991Z,957.86
2018-11-01T09:30:35.996Z,957.93
2018-11-01T09:31:35.991Z,957.96
2018-11-01T09:32:36.014Z,958.02
2018-11-01T09:33:35.979Z,958.02
2018-11-01T09:34:35.978Z,958.06
2018-11-01T09:35:36.010Z,958.08
2018-11-01T09:36:35.994Z,958.10
2018-11-01T09:37:35.972Z,958.20
2018-11-01T09:38:35.970Z,958.21
2018-11-01T09:39:35.995Z,958.12
2018-11-01T09:40:35.962Z,958.09
2018-11-01T09:41:35.961Z,958.08
2018-11-01T09:42:35.957Z,958.11
2018-11-01T09:43:35.958Z,958.10
2018-11-01T09:44:35.966Z,958.23
2018-11-01T09:45:35.955Z,958.19
2018-11-01T09:46:36.072Z,958.19
2018-11-01T09:47:36.395Z,958.16
2018-11-01T09:48:35.960Z,958.20
2018-11-01T09:49:35.941Z,958.18
2018-11-01T09:50:35.937Z,958.13
2018-11-01T09:51:35.939Z,958.06
2018-11-01T09:52:35.938Z,958.04
2018-11-01T09:53:35.932Z,957.97
2018-11-01T09:54:38.601Z,957.94
2018-11-01T09:55:35.994Z,957.89
2018-11-01T09:56:36.092Z,957.80
2018-11-01T09:57:35.922Z,957.76
2018-11-01T09:58:35.946Z,957.74
2018-11-01T09:59:35.946Z,957.74
2018-11-01T10:00:35.942Z,957.79
2018-11-01T10:01:35.911Z,957.82
2018-11-01T10:02:35.942Z,957.81
2018-11-01T10:03:35.911Z,957.83
2018-11-01T10:04:35.919Z,957.85
2018-11-01T10:05:35.901Z,957.86
2018-11-01T10:06:35.902Z,957.86
2018-11-01T10:07:35.913Z,957.84
2018-11-01T10:08:35.899Z,957.86
2018-11-01T10:09:35.902Z,957.85
2018-11-01T10:10:35.891Z,957.81
2018-11-01T10:11:35.892Z,957.77
2018-11-01T10:12:35.918Z,957.77
2018-11-01T10:13:35.884Z,957.76
2018-11-01T10:14:35.885Z,957.80
2018-11-01T10:15:36.014Z,957.77
2018-11-01T10:16:36.023Z,957.76
2018-11-01T10:17:36.266Z,957.79
2018-11-01T10:18:35.874Z,957.74
2018-11-01T10:19:35.872Z,957.79
2018-11-01T10:20:35.875Z,957.74
2018-11-01T10:21:35.868Z,957.71
2018-11-01T10:22:39.024Z,957.68
2018-11-01T10:23:35.871Z,957.65
2018-11-01T10:24:35.861Z,957.61
2018-11-01T10:25:35.858Z,957.63
2018-11-01T10:26:35.855Z,957.62
2018-11-01T10:27:35.884Z,957.61
2018-11-01T10:28:35.865Z,957.66
2018-11-01T10:29:35.858Z,957.67
2018-11-01T10:30:35.859Z,957.63
2018-11-01T10:31:35.845Z,957.66
2018-11-01T10:32:35.852Z,957.62
2018-11-01T10:33:35.842Z,957.62
2018-11-01T10:34:35.844Z,957.57
2018-11-01T10:35:35.880Z,957.53
2018-11-01T10:36:35.840Z,957.54
2018-11-01T10:37:35.835Z,957.51
2018-11-01T10:38:35.832Z,957.50
2018-11-01T10:39:35.832Z,957.56
2018-11-01T10:40:35.842Z,957.53
2018-11-01T10:41:35.828Z,957.54
2018-11-01T10:42:35.827Z,957.54
2018-11-01T10:43:35.824Z,957.54
2018-11-01T10:44:35.821Z,957.54
2018-11-01T10:45:35.819Z,957.54
2018-11-01T10:46:35.816Z,957.51
2018-11-01T10:47:35.837Z,957.55
2018-11-01T10:48:35.813Z,957.54
2018-11-01T10:49:35.809Z,957.54
2018-11-01T10:50:35.809Z,957.50
2018-11-01T10:51:35.807Z,957.51
2018-11-01T10:52:35.805Z,957.56
2018-11-01T10:53:35.829Z,957.58
2018-11-01T10:54:35.800Z,957.60
2018-11-01T10:55:35.802Z,957.57
2018-11-01T10:56:35.798Z,957.59
2018-11-01T10:57:35.798Z,957.64
2018-11-01T10:58:36.612Z,957.63
2018-11-01T10:59:35.806Z,957.64
2018-11-01T11:00:35.903Z,957.64
2018-11-01T11:01:35.786Z,957.67
2018-11-01T11:02:35.788Z,957.69
2018-11-01T11:03:35.786Z,957.67
2018-11-01T11:04:35.784Z,957.73
2018-11-01T11:05:35.782Z,957.72
2018-11-01T11:06:35.809Z,957.62
2018-11-01T11:07:35.778Z,957.62
2018-11-01T11:08:37.609Z,957.57
2018-11-01T11:09:35.772Z,957.55
2018-11-01T11:10:35.778Z,957.53
2018-11-01T11:11:35.772Z,957.53
2018-11-01T11:12:35.771Z,957.47
2018-11-01T11:13:35.781Z,957.40
2018-11-01T11:14:35.789Z,957.41
2018-11-01T11:15:35.768Z,957.39
2018-11-01T11:16:35.764Z,957.39
2018-11-01T11:17:35.762Z,957.41
2018-11-01T11:18:35.779Z,957.32
2018-11-01T11:19:35.767Z,957.38
2018-11-01T11:20:35.978Z,957.38
2018-11-01T11:21:35.755Z,957.41
2018-11-01T11:22:35.755Z,957.39
2018-11-01T11:23:35.755Z,957.37
2018-11-01T11:24:35.753Z,957.34
2018-11-01T11:25:35.749Z,957.32
2018-11-01T11:26:35.755Z,957.32
2018-11-01T11:27:35.747Z,957.31
2018-11-01T11:28:35.756Z,957.33
2018-11-01T11:29:35.743Z,957.29
2018-11-01T11:30:35.835Z,957.25
2018-11-01T11:31:35.743Z,957.21
2018-11-01T11:32:35.742Z,957.17
2018-11-01T11:33:35.741Z,957.24
2018-11-01T11:34:35.741Z,957.20
2018-11-01T11:35:35.775Z,957.21
2018-11-01T11:36:35.738Z,957.20
2018-11-01T11:37:35.734Z,957.16
2018-11-01T11:38:35.739Z,957.11
2018-11-01T11:39:35.825Z,957.15
2018-11-01T11:40:35.733Z,957.10
2018-11-01T11:41:35.731Z,957.09
2018-11-01T11:42:35.732Z,957.03
2018-11-01T11:43:35.729Z,957.01
2018-11-01T11:44:35.730Z,956.97
2018-11-01T11:45:35.729Z,957.00
2018-11-01T11:46:35.749Z,956.99
2018-11-01T11:47:35.729Z,956.95
2018-11-01T11:48:35.731Z,956.91
2018-11-01T11:49:35.730Z,956.83
2018-11-01T11:50:35.732Z,956.79
2018-11-01T11:51:35.858Z,956.79
2018-11-01T11:52:35.730Z,956.72
2018-11-01T11:53:35.730Z,956.79
2018-11-01T11:54:35.729Z,956.81
2018-11-01T11:55:35.729Z,956.80
2018-11-01T11:56:35.727Z,956.79
2018-11-01T11:57:35.725Z,956.78
2018-11-01T11:58:35.734Z,956.78
2018-11-01T11:59:35.733Z,956.73
2018-11-01T12:00:35.739Z,956.73
2018-11-01T12:01:35.733Z,956.65
2018-11-01T12:02:35.729Z,956.69
2018-11-01T12:03:35.734Z,956.71
2018-11-01T12:04:35.732Z,956.74
2018-11-01T12:05:35.847Z,956.68
2018-11-01T12:06:35.734Z,956.73
2018-11-01T12:07:35.739Z,956.73
2018-11-01T12:08:35.735Z,956.67
2018-11-01T12:09:35.739Z,956.71
2018-11-01T12:10:35.740Z,956.68
2018-11-01T12:11:35.738Z,956.67
2018-11-01T12:12:35.737Z,956.69
2018-11-01T12:13:35.739Z,956.72
2018-11-01T12:14:35.746Z,956.74
2018-11-01T12:15:35.742Z,956.69
2018-11-01T12:16:35.743Z,956.63
2018-11-01T12:17:35.742Z,956.68
2018-11-01T12:18:35.747Z,956.68
2018-11-01T12:19:35.747Z,956.73
2018-11-01T12:20:35.748Z,956.79
2018-11-01T12:21:35.750Z,956.78
2018-11-01T12:22:35.771Z,956.78
2018-11-01T12:23:35.753Z,956.78
2018-11-01T12:24:35.752Z,956.81
2018-11-01T12:25:35.752Z,956.82
2018-11-01T12:26:35.754Z,956.81
2018-11-01T12:27:35.757Z,956.81
2018-11-01T12:28:35.852Z,956.77
2018-11-01T12:29:35.758Z,956.80
2018-11-01T12:30:35.761Z,956.77
2018-11-01T12:31:35.761Z,956.77
2018-11-01T12:32:35.760Z,956.81
2018-11-01T12:33:35.765Z,956.80
2018-11-01T12:34:35.771Z,956.78
2018-11-01T12:35:35.866Z,956.69
2018-11-01T12:36:35.769Z,956.74
2018-11-01T12:37:35.772Z,956.67
2018-11-01T12:38:35.772Z,956.70
2018-11-01T12:39:35.773Z,956.66
2018-11-01T12:40:35.775Z,956.65
2018-11-01T12:41:35.860Z,956.59
2018-11-01T12:42:35.779Z,956.55